Time;durP1;ratioP1;P1;durP2;ratioP2;P2;SDS_P1;SDS_P2;PMS_P1;PMS_P2;Temp;Humidity;BMP_temperature;BMP_pressure;BME280_temperature;BME280_humidity;BME280_pressure;Samples;Min_cycle;Max_cycle;Signal;HPM_P1;HPM_P2
2022/05/13 00:00:23;;;;;;;;;;;;;;;12.40;56.17;101781.41;5051329;28;19935;-56
2022/05/13 00:02:48;;;;;;;;;;;;;;;12.38;55.91;101778.06;5048998;28;20358;-57
2022/05/13 00:05:13;;;;;;;;;;;;;;;12.35;55.93;101773.03;5051240;28;19925;-57
2022/05/13 00:07:38;;;;;;;;;;;;;;;12.39;56.61;101774.44;5048362;28;19925;-58
2022/05/13 00:10:07;;;;;;;;;;;;;;;12.31;57.11;101769.00;5040289;28;20375;-57
2022/05/13 00:12:34;;;;;;;;;;;;;;;12.28;57.34;101771.97;5049727;28;19928;-57
2022/05/13 00:15:00;;;;;;;;;;;;;;;12.18;57.16;101767.53;5047279;28;21484;-57
2022/05/13 00:17:26;;;;;;;;;;;;;;;12.16;57.59;101768.69;5049945;28;19952;-57
2022/05/13 00:19:51;;;;;;;;;;;;;;;12.13;57.66;101769.81;5052060;28;20026;-57
2022/05/13 00:22:16;;;;;;;;;;;;;;;12.07;57.71;101775.72;5051081;28;19927;-56
2022/05/13 00:24:42;;;;;;;;;;;;;;;12.03;58.27;101769.00;5052029;28;20330;-57
2022/05/13 00:27:07;;;;;;;;;;;;;;;12.01;58.01;101765.66;5051545;28;20535;-57
2022/05/13 00:29:33;;;;;;;;;;;;;;;11.96;58.89;101769.59;5050543;28;19927;-57
2022/05/13 00:31:58;;;;;;;;;;;;;;;11.94;58.84;101760.09;5042502;28;19921;-57
2022/05/13 00:34:24;;;;;;;;;;;;;;;11.89;58.60;101765.84;5048378;28;19925;-57
2022/05/13 00:36:50;;;;;;;;;;;;;;;11.86;58.61;101763.50;5047882;28;19921;-57
2022/05/13 00:39:15;;;;;;;;;;;;;;;11.89;58.39;101763.19;5049040;28;19927;-57
2022/05/13 00:41:40;;;;;;;;;;;;;;;11.86;58.77;101768.81;5049166;28;20379;-57
2022/05/13 00:44:06;;;;;;;;;;;;;;;11.86;59.30;101762.66;5050028;28;19929;-57
2022/05/13 00:46:31;;;;;;;;;;;;;;;11.80;59.53;101766.75;5048648;28;19931;-57
2022/05/13 00:48:58;;;;;;;;;;;;;;;11.76;58.85;101768.00;5050345;28;20410;-57
2022/05/13 00:51:26;;;;;;;;;;;;;;;11.75;58.78;101766.34;5051231;28;19944;-57
2022/05/13 00:53:51;;;;;;;;;;;;;;;11.73;58.68;101768.31;5047102;28;19929;-57
2022/05/13 00:56:19;;;;;;;;;;;;;;;11.70;59.41;101764.13;5051750;28;19970;-57
2022/05/13 00:58:47;;;;;;;;;;;;;;;11.66;59.86;101763.59;5050685;28;19952;-57
2022/05/13 01:01:12;;;;;;;;;;;;;;;11.67;60.68;101759.94;5049662;28;19935;-58
2022/05/13 01:03:38;;;;;;;;;;;;;;;11.63;60.14;101763.88;5048659;28;19924;-56
2022/05/13 01:06:05;;;;;;;;;;;;;;;11.50;60.00;101763.34;5049648;28;20003;-56
2022/05/13 01:08:33;;;;;;;;;;;;;;;11.41;59.90;101763.22;5050579;28;20387;-57
2022/05/13 01:11:00;;;;;;;;;;;;;;;11.43;60.42;101758.63;5048060;28;19921;-57
2022/05/13 01:13:28;;;;;;;;;;;;;;;11.43;60.99;101769.25;5049717;28;19928;-57
2022/05/13 01:15:54;;;;;;;;;;;;;;;11.41;60.41;101757.91;5047677;28;19921;-57
2022/05/13 01:18:26;;;;;;;;;;;;;;;11.18;59.91;101757.41;5050462;28;19931;-57
2022/05/13 01:20:52;;;;;;;;;;;;;;;11.11;60.11;101754.50;5042155;28;19927;-57
2022/05/13 01:23:19;;;;;;;;;;;;;;;11.13;60.74;101757.00;5052334;28;20295;-57
2022/05/13 01:25:49;;;;;;;;;;;;;;;11.10;60.41;101752.81;5049626;28;20055;-57
2022/05/13 01:28:15;;;;;;;;;;;;;;;11.15;60.30;101755.06;5049181;28;19982;-57
2022/05/13 01:30:43;;;;;;;;;;;;;;;11.12;60.56;101756.19;5046309;28;19947;-57
2022/05/13 01:33:09;;;;;;;;;;;;;;;11.04;60.45;101764.00;5049440;28;20292;-57
2022/05/13 01:35:37;;;;;;;;;;;;;;;11.08;60.04;101761.91;5048100;28;20039;-57
2022/05/13 01:38:02;;;;;;;;;;;;;;;11.08;60.24;101765.41;5044780;28;19920;-57
2022/05/13 01:40:28;;;;;;;;;;;;;;;11.05;59.91;101763.03;5039461;28;19974;-57
2022/05/13 01:42:54;;;;;;;;;;;;;;;11.05;60.71;101767.50;5050742;28;19925;-57
2022/05/13 01:45:19;;;;;;;;;;;;;;;11.10;61.32;101763.44;5050793;28;20578;-57
2022/05/13 01:47:44;;;;;;;;;;;;;;;11.04;60.69;101764.00;5054295;28;20363;-57
2022/05/13 01:50:10;;;;;;;;;;;;;;;11.13;60.69;101768.47;5053287;28;19955;-57
2022/05/13 01:52:35;;;;;;;;;;;;;;;11.01;60.36;101764.31;5054024;28;19925;-56
2022/05/13 01:55:00;;;;;;;;;;;;;;;11.02;60.75;101768.63;5053718;28;19948;-57
2022/05/13 01:57:25;;;;;;;;;;;;;;;11.02;60.64;101763.31;5052981;28;19921;-57
2022/05/13 01:59:50;;;;;;;;;;;;;;;11.01;60.83;101764.31;5054144;28;19917;-58
2022/05/13 02:02:16;;;;;;;;;;;;;;;10.98;60.80;101765.44;5052557;28;19927;-57
2022/05/13 02:04:41;;;;;;;;;;;;;;;11.03;60.99;101767.66;5054510;28;19943;-57
2022/05/13 02:07:06;;;;;;;;;;;;;;;10.99;60.82;101768.91;5052184;28;20406;-57
2022/05/13 02:09:32;;;;;;;;;;;;;;;11.02;60.87;101760.66;5050702;28;19928;-57
2022/05/13 02:11:57;;;;;;;;;;;;;;;11.01;60.90;101764.31;5052300;28;19929;-57
2022/05/13 02:14:22;;;;;;;;;;;;;;;11.09;60.95;101761.78;5048782;28;19978;-57
2022/05/13 02:16:48;;;;;;;;;;;;;;;11.03;61.25;101765.84;5054082;28;19920;-57
2022/05/13 02:19:13;;;;;;;;;;;;;;;11.12;61.13;101766.81;5053898;28;20435;-57
2022/05/13 02:21:38;;;;;;;;;;;;;;;10.99;61.87;101755.63;5050920;28;19974;-58
2022/05/13 02:24:04;;;;;;;;;;;;;;;10.88;60.76;101756.63;5052936;28;20165;-57
2022/05/13 02:26:29;;;;;;;;;;;;;;;10.91;61.59;101764.31;5051548;28;20606;-57
2022/05/13 02:28:54;;;;;;;;;;;;;;;10.85;61.17;101760.41;5051497;28;19990;-57
2022/05/13 02:31:20;;;;;;;;;;;;;;;10.94;61.94;101757.84;5052725;28;20015;-57
2022/05/13 02:33:45;;;;;;;;;;;;;;;10.84;61.54;101756.06;5052808;28;19924;-57
2022/05/13 02:36:11;;;;;;;;;;;;;;;10.88;61.83;101752.16;5054404;28;20363;-57
2022/05/13 02:38:37;;;;;;;;;;;;;;;10.76;62.65;101751.47;5042874;28;19943;-57
2022/05/13 02:41:11;;;;;;;;;;;;;;;10.75;61.83;101754.25;5051193;28;19956;-57
2022/05/13 02:43:37;;;;;;;;;;;;;;;10.77;62.33;101757.63;5050858;28;19920;-57
2022/05/13 02:46:02;;;;;;;;;;;;;;;10.79;61.82;101760.09;5052230;28;19927;-57
2022/05/13 02:48:27;;;;;;;;;;;;;;;10.84;61.91;101756.06;5051504;28;20416;-57
2022/05/13 02:50:53;;;;;;;;;;;;;;;10.87;61.31;101754.94;5050079;28;20335;-57
2022/05/13 02:53:18;;;;;;;;;;;;;;;10.93;61.77;101753.53;5052044;28;19943;-58
2022/05/13 02:55:43;;;;;;;;;;;;;;;10.83;62.38;101748.25;5048154;28;20047;-58
2022/05/13 02:58:08;;;;;;;;;;;;;;;10.82;62.59;101743.91;5050521;28;19921;-58
2022/05/13 03:00:34;;;;;;;;;;;;;;;10.88;63.06;101744.22;5050073;28;20074;-57
2022/05/13 03:02:59;;;;;;;;;;;;;;;10.84;62.83;101753.41;5049218;28;20375;-57
2022/05/13 03:05:25;;;;;;;;;;;;;;;10.80;64.12;101754.66;5050174;28;20001;-57
2022/05/13 03:07:50;;;;;;;;;;;;;;;10.81;63.03;101756.34;5047639;28;19928;-57
2022/05/13 03:10:15;;;;;;;;;;;;;;;10.86;63.69;101761.25;5050914;28;19925;-57
2022/05/13 03:12:41;;;;;;;;;;;;;;;10.82;63.44;101749.22;5050342;28;20422;-57
2022/05/13 03:15:06;;;;;;;;;;;;;;;10.83;63.75;101757.06;5050936;28;19920;-57
2022/05/13 03:17:31;;;;;;;;;;;;;;;10.85;63.50;101755.09;5048207;28;19945;-57
2022/05/13 03:19:57;;;;;;;;;;;;;;;10.92;63.72;101749.22;5050524;28;20023;-58
2022/05/13 03:22:23;;;;;;;;;;;;;;;10.89;64.10;101748.53;5049476;28;20264;-58
2022/05/13 03:24:48;;;;;;;;;;;;;;;10.87;63.91;101747.81;5050456;28;19948;-57
2022/05/13 03:27:13;;;;;;;;;;;;;;;10.85;64.13;101744.47;5051755;28;20039;-57
2022/05/13 03:29:38;;;;;;;;;;;;;;;10.98;64.75;101743.34;5050195;28;20390;-57
2022/05/13 03:32:05;;;;;;;;;;;;;;;10.87;64.67;101747.81;5050117;28;19924;-57
2022/05/13 03:34:31;;;;;;;;;;;;;;;10.84;64.68;101737.50;5051620;28;20290;-57
2022/05/13 03:36:56;;;;;;;;;;;;;;;10.87;65.27;101737.19;5049302;28;19929;-56
2022/05/13 03:39:21;;;;;;;;;;;;;;;10.91;65.25;101743.09;5050401;28;19927;-58
2022/05/13 03:41:46;;;;;;;;;;;;;;;10.84;65.28;101748.09;5050283;28;20359;-57
2022/05/13 03:44:11;;;;;;;;;;;;;;;10.87;65.01;101741.69;5051996;28;19925;-57
2022/05/13 03:46:37;;;;;;;;;;;;;;;10.76;65.42;101742.69;5032758;28;20379;-57
2022/05/13 03:49:02;;;;;;;;;;;;;;;10.80;65.82;101740.59;5050593;28;19924;-57
2022/05/13 03:51:28;;;;;;;;;;;;;;;10.78;65.35;101743.38;5049057;28;20363;-57
2022/05/13 03:53:53;;;;;;;;;;;;;;;10.79;66.03;101745.03;5051436;28;19920;-57
2022/05/13 03:56:18;;;;;;;;;;;;;;;10.71;66.01;101736.94;5049416;28;19920;-57
2022/05/13 03:58:43;;;;;;;;;;;;;;;10.75;65.66;101746.28;5053159;28;19933;-56
2022/05/13 04:01:09;;;;;;;;;;;;;;;10.74;66.26;101748.13;5047480;28;19921;-57
2022/05/13 04:03:34;;;;;;;;;;;;;;;10.65;66.19;101740.97;5049425;28;19925;-57
2022/05/13 04:08:59;;;;;;;;;;;;;;;10.62;66.23;101741.28;5046996;28;19928;-57
2022/05/13 04:11:25;;;;;;;;;;;;;;;10.60;65.98;101757.31;5047636;28;19920;-58
2022/05/13 04:16:35;;;;;;;;;;;;;;;10.56;67.18;101749.78;5047953;28;19990;-57
2022/05/13 04:19:01;;;;;;;;;;;;;;;10.58;66.80;101756.63;5047587;28;19921;-57
2022/05/13 04:21:28;;;;;;;;;;;;;;;10.59;67.50;101750.34;5050926;28;20030;-57
2022/05/13 04:23:54;;;;;;;;;;;;;;;10.59;65.82;101745.06;5047884;28;19928;-57
2022/05/13 04:26:20;;;;;;;;;;;;;;;10.62;66.13;101750.06;5048298;28;20292;-57
2022/05/13 04:28:47;;;;;;;;;;;;;;;10.62;66.69;101750.06;5047042;28;20015;-57
2022/05/13 04:31:13;;;;;;;;;;;;;;;10.63;67.01;101757.06;5045225;28;20314;-57
2022/05/13 04:33:39;;;;;;;;;;;;;;;10.59;66.88;101757.47;5048332;28;19920;-58
2022/05/13 04:36:05;;;;;;;;;;;;;;;10.58;66.80;101754.00;5049572;28;19921;-56
2022/05/13 04:38:30;;;;;;;;;;;;;;;10.59;67.08;101760.09;5049547;28;19969;-56
2022/05/13 04:40:55;;;;;;;;;;;;;;;10.94;67.52;101763.16;5047915;28;20012;-58
2022/05/13 04:43:20;;;;;;;;;;;;;;;10.61;66.89;101764.31;5043259;28;19925;-57
2022/05/13 04:45:47;;;;;;;;;;;;;;;10.59;67.45;101771.56;5048015;28;19923;-56
2022/05/13 04:48:16;;;;;;;;;;;;;;;10.61;67.69;101774.91;5039336;28;19920;-58
2022/05/13 04:50:43;;;;;;;;;;;;;;;10.60;67.28;101778.53;5046880;28;20433;-58
2022/05/13 04:53:09;;;;;;;;;;;;;;;10.69;67.83;101781.34;5042456;28;19921;-60
2022/05/13 04:55:35;;;;;;;;;;;;;;;10.68;67.54;101774.34;5044731;28;20055;-59
2022/05/13 04:58:00;;;;;;;;;;;;;;;10.70;68.56;101781.19;5048128;28;20007;-59
2022/05/13 05:00:26;;;;;;;;;;;;;;;10.70;68.51;101783.03;5044918;28;20539;-58
2022/05/13 05:02:51;;;;;;;;;;;;;;;10.68;67.71;101785.81;5043112;28;19929;-58
2022/05/13 05:05:17;;;;;;;;;;;;;;;10.74;68.31;101790.56;5044422;28;20440;-59
2022/05/13 05:07:42;;;;;;;;;;;;;;;10.76;68.81;101793.09;5048293;28;20405;-58
2022/05/13 05:10:08;;;;;;;;;;;;;;;10.77;69.82;101789.44;5046769;28;19955;-60
2022/05/13 05:12:33;;;;;;;;;;;;;;;10.75;69.00;101794.03;5046494;28;20379;-59
2022/05/13 05:14:58;;;;;;;;;;;;;;;11.00;68.45;101797.97;5042001;28;20356;-60
2022/05/13 05:17:23;;;;;;;;;;;;;;;10.88;69.33;101791.97;5043541;28;19931;-59
2022/05/13 05:19:49;;;;;;;;;;;;;;;10.77;68.66;101802.72;5041822;28;19929;-58
2022/05/13 05:22:14;;;;;;;;;;;;;;;10.82;69.33;101813.75;5047557;28;20598;-59
2022/05/13 05:24:39;;;;;;;;;;;;;;;10.96;69.02;101811.66;5045945;28;19951;-59
2022/05/13 05:27:05;;;;;;;;;;;;;;;10.86;68.94;101815.13;5046108;28;20027;-59
2022/05/13 05:29:30;;;;;;;;;;;;;;;10.84;69.11;101806.47;5049714;28;20427;-58
2022/05/13 05:31:55;;;;;;;;;;;;;;;10.93;68.60;101822.53;5047431;28;19921;-59
2022/05/13 05:34:20;;;;;;;;;;;;;;;11.05;68.55;101826.72;5049627;28;20027;-59
2022/05/13 05:36:46;;;;;;;;;;;;;;;11.24;69.17;101825.03;5039686;28;19925;-58
2022/05/13 05:39:11;;;;;;;;;;;;;;;11.12;69.50;101834.97;5048805;28;19987;-59
2022/05/13 05:41:36;;;;;;;;;;;;;;;11.11;68.48;101833.31;5049589;28;19921;-59
2022/05/13 05:44:01;;;;;;;;;;;;;;;11.13;68.64;101832.19;5054849;28;19921;-59
2022/05/13 05:46:26;;;;;;;;;;;;;;;11.16;69.31;101837.19;5054091;28;20417;-58
2022/05/13 05:48:52;;;;;;;;;;;;;;;11.21;68.95;101838.59;5032840;28;20387;-59
2022/05/13 05:51:17;;;;;;;;;;;;;;;11.27;69.14;101853.97;5054363;28;19925;-58
2022/05/13 05:59:11;;;;;;;;;;;;;;;11.46;68.94;101853.13;5053278;28;19928;-59
2022/05/13 06:01:36;;;;;;;;;;;;;;;11.43;68.33;101864.00;5051198;28;19921;-59
2022/05/13 06:04:02;;;;;;;;;;;;;;;11.46;68.81;101854.91;5051183;28;19975;-59
2022/05/13 06:06:27;;;;;;;;;;;;;;;11.61;69.85;101850.84;5050253;28;19960;-58
2022/05/13 06:08:56;;;;;;;;;;;;;;;11.63;69.15;101856.84;5053739;28;20016;-58
2022/05/13 06:11:23;;;;;;;;;;;;;;;11.63;68.77;101859.50;5054153;28;19927;-58
2022/05/13 06:13:50;;;;;;;;;;;;;;;11.81;69.36;101864.06;5054169;28;20376;-59
2022/05/13 06:16:15;;;;;;;;;;;;;;;11.82;69.83;101868.41;5053844;28;20007;-59
2022/05/13 06:18:40;;;;;;;;;;;;;;;11.87;69.10;101866.16;5052557;28;20003;-58
2022/05/13 06:21:06;;;;;;;;;;;;;;;11.89;69.73;101869.50;5055045;28;20012;-58
2022/05/13 06:23:31;;;;;;;;;;;;;;;12.19;69.30;101875.56;5054589;28;19917;-58
2022/05/13 06:25:56;;;;;;;;;;;;;;;12.01;69.00;101871.97;5053425;28;20253;-58
2022/05/13 06:28:21;;;;;;;;;;;;;;;11.96;69.71;101870.63;5053595;28;20359;-58
2022/05/13 06:30:46;;;;;;;;;;;;;;;12.05;69.66;101881.38;5051509;28;19945;-58
2022/05/13 06:33:11;;;;;;;;;;;;;;;12.16;69.73;101885.66;5049557;28;20398;-59
2022/05/13 06:35:38;;;;;;;;;;;;;;;12.08;69.83;101886.38;5054310;28;20011;-58
2022/05/13 06:38:03;;;;;;;;;;;;;;;12.07;69.65;101884.72;5053808;28;19974;-59
2022/05/13 06:40:28;;;;;;;;;;;;;;;12.18;69.93;101878.41;5053797;28;19925;-59
2022/05/13 06:42:54;;;;;;;;;;;;;;;12.32;70.02;101885.88;5054438;28;20311;-59
2022/05/13 06:45:19;;;;;;;;;;;;;;;12.47;69.60;101891.56;5060095;28;19916;-59
2022/05/13 06:47:45;;;;;;;;;;;;;;;12.47;69.60;101896.03;5052556;28;19924;-59
2022/05/13 06:50:11;;;;;;;;;;;;;;;12.46;69.73;101897.88;5054001;28;19929;-59
2022/05/13 06:52:37;;;;;;;;;;;;;;;12.56;70.07;101894.28;5053622;28;19921;-58
2022/05/13 06:55:03;;;;;;;;;;;;;;;12.57;69.45;101893.31;5049808;28;20334;-57
2022/05/13 06:57:28;;;;;;;;;;;;;;;12.80;69.86;101893.75;5053103;28;19921;-56
2022/05/13 06:59:53;;;;;;;;;;;;;;;12.81;69.29;101894.56;5053319;28;19952;-56
2022/05/13 07:02:19;;;;;;;;;;;;;;;12.81;69.98;101897.22;5053060;28;20379;-56
2022/05/13 07:04:44;;;;;;;;;;;;;;;12.91;68.98;101906.00;5050297;28;19932;-57
2022/05/13 07:07:10;;;;;;;;;;;;;;;13.08;68.65;101900.84;5052019;28;19921;-57
2022/05/13 07:09:36;;;;;;;;;;;;;;;12.90;69.24;101901.66;5054091;28;20394;-57
2022/05/13 07:12:01;;;;;;;;;;;;;;;12.91;69.36;101901.50;5053080;28;19951;-57
2022/05/13 07:14:26;;;;;;;;;;;;;;;13.03;69.62;101902.13;5052230;28;19921;-56
2022/05/13 07:16:51;;;;;;;;;;;;;;;13.00;69.53;101897.13;5051335;28;19975;-57
2022/05/13 07:19:16;;;;;;;;;;;;;;;13.01;69.24;101896.13;5053456;28;20394;-57
2022/05/13 07:21:42;;;;;;;;;;;;;;;13.09;69.07;101897.19;5052168;28;19929;-56
2022/05/13 07:24:07;;;;;;;;;;;;;;;13.20;69.83;101902.28;5053672;28;19944;-56
2022/05/13 07:26:32;;;;;;;;;;;;;;;13.29;68.71;101892.53;5052238;28;20391;-57
2022/05/13 07:28:58;;;;;;;;;;;;;;;13.37;68.46;101899.75;5051714;28;19991;-57
2022/05/13 07:31:23;;;;;;;;;;;;;;;13.41;68.77;101898.44;5034171;28;19948;-55
2022/05/13 07:33:48;;;;;;;;;;;;;;;13.68;67.63;101904.69;5039711;28;19928;-54
2022/05/13 07:36:13;;;;;;;;;;;;;;;13.74;67.94;101904.06;5051457;28;20296;-60
2022/05/13 07:41:16;;;;;;;;;;;;;;;13.79;68.17;101904.44;5034115;28;20019;-59
2022/05/13 07:41:25;;;;;;;;;;;;;;;13.98;66.83;101907.88;5051665;28;19921;-58
2022/05/13 07:43:50;;;;;;;;;;;;;;;14.04;66.35;101907.25;5049814;28;19967;-57
2022/05/13 07:46:15;;;;;;;;;;;;;;;13.87;66.63;101908.13;5052236;28;19925;-57
2022/05/13 07:48:41;;;;;;;;;;;;;;;13.97;66.68;101912.34;5046707;28;19962;-57
2022/05/13 07:51:06;;;;;;;;;;;;;;;14.04;66.50;101909.91;5050277;28;20555;-56
2022/05/13 07:53:32;;;;;;;;;;;;;;;14.09;66.22;101910.28;5051538;28;19921;-57
2022/05/13 07:55:57;;;;;;;;;;;;;;;14.16;65.88;101921.13;5047411;28;20391;-57
2022/05/13 07:58:23;;;;;;;;;;;;;;;14.18;65.83;101915.63;5046552;28;19952;-57
2022/05/13 08:00:48;;;;;;;;;;;;;;;14.28;65.58;101919.03;5051720;28;19921;-57
2022/05/13 08:03:14;;;;;;;;;;;;;;;14.28;64.69;101924.38;5046194;28;19928;-57
2022/05/13 08:05:42;;;;;;;;;;;;;;;14.13;64.84;101916.94;5052072;28;19964;-57
2022/05/13 08:08:10;;;;;;;;;;;;;;;14.18;64.76;101928.97;5052131;28;19921;-57
2022/05/13 08:10:36;;;;;;;;;;;;;;;14.24;64.85;101926.53;5045448;28;19925;-57
2022/05/13 08:13:01;;;;;;;;;;;;;;;14.39;65.08;101932.09;5047739;28;19960;-57
2022/05/13 08:15:27;;;;;;;;;;;;;;;14.60;64.27;101933.50;5052065;28;19955;-57
2022/05/13 08:17:52;;;;;;;;;;;;;;;14.53;63.14;101933.31;5049497;28;19921;-56
2022/05/13 08:20:18;;;;;;;;;;;;;;;14.40;63.85;101927.56;5051901;28;20342;-57
2022/05/13 08:22:45;;;;;;;;;;;;;;;14.43;64.22;101935.28;5051305;28;21561;-57
2022/05/13 08:25:10;;;;;;;;;;;;;;;14.51;62.54;101939.81;5050779;28;19939;-57
2022/05/13 08:27:36;;;;;;;;;;;;;;;14.42;62.49;101940.75;5052769;28;19963;-56
2022/05/13 08:30:03;;;;;;;;;;;;;;;14.39;63.59;101936.59;5045306;28;19922;-57
2022/05/13 08:32:29;;;;;;;;;;;;;;;14.69;62.57;101946.91;5050629;28;19921;-57
2022/05/13 08:34:54;;;;;;;;;;;;;;;14.88;60.85;101945.78;5051333;28;20341;-57
2022/05/13 08:37:20;;;;;;;;;;;;;;;14.84;61.33;101931.13;5051403;28;19927;-57
2022/05/13 08:39:45;;;;;;;;;;;;;;;15.05;60.64;101941.34;5051841;28;19929;-57
2022/05/13 08:42:36;;;;;;;;;;;;;;;14.96;60.60;101935.16;5051860;28;19979;-57
2022/05/13 08:45:02;;;;;;;;;;;;;;;15.08;61.30;101943.66;5042968;28;19921;-58
2022/05/13 08:47:51;;;;;;;;;;;;;;;15.27;59.87;101942.53;5052576;28;19925;-57
2022/05/13 08:50:37;;;;;;;;;;;;;;;15.22;59.73;101942.19;5039369;28;20324;-57
2022/05/13 08:53:11;;;;;;;;;;;;;;;15.23;59.52;101943.00;5051336;28;19921;-57
2022/05/13 08:56:01;;;;;;;;;;;;;;;15.18;59.92;101941.69;5048671;28;20256;-58
2022/05/13 08:58:29;;;;;;;;;;;;;;;15.36;59.79;101951.41;5038061;28;19951;-57
2022/05/13 09:00:55;;;;;;;;;;;;;;;15.26;59.95;101945.38;5046824;28;19932;-57
2022/05/13 09:03:24;;;;;;;;;;;;;;;15.51;58.57;101950.72;5043448;28;20324;-58
2022/05/13 09:05:53;;;;;;;;;;;;;;;15.58;58.43;101943.69;5043849;28;19928;-57
2022/05/13 09:08:20;;;;;;;;;;;;;;;15.53;58.33;101938.88;5051465;28;19968;-57
2022/05/13 09:10:58;;;;;;;;;;;;;;;15.55;58.40;101946.72;5050974;28;20314;-57
2022/05/13 09:13:53;;;;;;;;;;;;;;;15.62;57.27;101953.06;5050380;28;19925;-57
2022/05/13 09:16:25;;;;;;;;;;;;;;;15.49;57.63;101945.53;5042306;28;20256;-57
2022/05/13 09:19:01;;;;;;;;;;;;;;;15.49;57.69;101942.03;5048556;28;19931;-57
2022/05/13 09:21:27;;;;;;;;;;;;;;;15.79;57.86;101945.03;5049895;28;19925;-57
2022/05/13 09:23:52;;;;;;;;;;;;;;;15.78;57.94;101940.69;5034420;28;19982;-57
2022/05/13 09:26:19;;;;;;;;;;;;;;;15.76;57.82;101942.69;5051297;28;19964;-57
2022/05/13 09:29:07;;;;;;;;;;;;;;;15.90;57.81;101947.38;5050790;28;19967;-56
2022/05/13 09:31:34;;;;;;;;;;;;;;;16.12;56.69;101948.50;5051743;28;19928;-56
2022/05/13 09:33:59;;;;;;;;;;;;;;;16.34;54.84;101961.31;5050178;28;20441;-57
2022/05/13 09:36:26;;;;;;;;;;;;;;;16.45;54.22;101952.94;5051711;28;19925;-58
2022/05/13 09:38:56;;;;;;;;;;;;;;;16.38;53.50;101965.34;5040292;28;19921;-57
2022/05/13 09:41:26;;;;;;;;;;;;;;;16.46;51.51;101964.44;5039850;28;19927;-57
2022/05/13 09:43:53;;;;;;;;;;;;;;;16.18;53.37;101951.50;5043924;28;20011;-57
2022/05/13 09:46:33;;;;;;;;;;;;;;;16.40;53.84;101960.63;5044029;28;19924;-57
2022/05/13 09:49:01;;;;;;;;;;;;;;;16.33;54.79;101955.13;5041056;28;19935;-59
2022/05/13 09:51:43;;;;;;;;;;;;;;;16.57;53.39;101960.56;5042971;28;19921;-58
2022/05/13 09:54:15;;;;;;;;;;;;;;;16.46;52.79;101965.28;5041825;28;19956;-57
2022/05/13 09:56:47;;;;;;;;;;;;;;;16.27;54.41;101956.66;5041910;28;20594;-57
2022/05/13 09:59:20;;;;;;;;;;;;;;;16.48;52.07;101963.28;5048571;28;19925;-57
2022/05/13 10:01:46;;;;;;;;;;;;;;;16.11;53.24;101967.41;5051574;28;20387;-57
2022/05/13 10:04:20;;;;;;;;;;;;;;;16.24;52.94;101961.53;5048793;28;19949;-57
2022/05/13 10:06:45;;;;;;;;;;;;;;;16.56;51.33;101961.56;5051519;28;20341;-57
2022/05/13 10:15:04;;;;;;;;;;;;;;;16.48;50.74;101963.28;5043984;28;19927;-57
2022/05/13 10:17:30;;;;;;;;;;;;;;;16.43;51.68;101968.31;5053507;28;19959;-56
2022/05/13 10:19:57;;;;;;;;;;;;;;;16.37;51.66;101966.31;5052629;28;19960;-57
2022/05/13 10:22:35;;;;;;;;;;;;;;;16.33;51.54;101978.41;5053718;28;20331;-56
2022/05/13 10:25:03;;;;;;;;;;;;;;;16.17;51.90;101966.72;5053442;28;20272;-56
2022/05/13 10:27:35;;;;;;;;;;;;;;;16.17;51.81;101972.06;5030698;28;19920;-56
2022/05/13 10:30:15;;;;;;;;;;;;;;;16.18;52.22;101968.38;5042445;28;20540;-56
2022/05/13 10:32:44;;;;;;;;;;;;;;;16.43;51.11;101976.34;5049767;28;19929;-56
2022/05/13 10:35:13;;;;;;;;;;;;;;;16.33;51.74;101965.84;5050711;28;20615;-57
2022/05/13 10:37:51;;;;;;;;;;;;;;;16.32;51.48;101963.34;5052718;28;19928;-57
2022/05/13 10:40:18;;;;;;;;;;;;;;;16.50;50.45;101969.31;5051449;28;19921;-57
2022/05/13 10:42:48;;;;;;;;;;;;;;;16.32;51.25;101963.34;5051487;28;19924;-57
2022/05/13 10:45:20;;;;;;;;;;;;;;;16.24;52.58;101962.34;5048104;28;19995;-56
2022/05/13 10:47:51;;;;;;;;;;;;;;;16.52;52.00;101967.28;5042400;28;19960;-56
2022/05/13 10:50:24;;;;;;;;;;;;;;;16.72;51.18;101958.81;5046291;28;19947;-57
2022/05/13 10:53:02;;;;;;;;;;;;;;;16.85;50.21;101968.97;5044617;28;19928;-56
2022/05/13 10:55:36;;;;;;;;;;;;;;;16.86;50.34;101964.44;5042738;28;20298;-57
2022/05/13 10:58:03;;;;;;;;;;;;;;;17.13;49.62;101970.34;5050597;28;19921;-57
2022/05/13 11:00:33;;;;;;;;;;;;;;;17.18;49.62;101971.47;5051898;28;19920;-56
2022/05/13 11:03:02;;;;;;;;;;;;;;;17.36;49.34;101969.53;5045786;28;19920;-57
2022/05/13 11:05:39;;;;;;;;;;;;;;;17.50;48.04;101963.38;5049126;28;19931;-56
2022/05/13 11:08:04;;;;;;;;;;;;;;;17.46;47.66;101970.09;5045185;28;19927;-57
2022/05/13 11:10:34;;;;;;;;;;;;;;;17.17;48.97;101969.00;5049858;28;19921;-56
2022/05/13 11:12:59;;;;;;;;;;;;;;;17.34;49.67;101967.88;5050803;28;19928;-57
2022/05/13 11:15:41;;;;;;;;;;;;;;;17.65;47.27;101967.97;5047050;28;20298;-58
2022/05/13 11:18:17;;;;;;;;;;;;;;;17.54;46.75;101969.19;5044044;28;20011;-58
2022/05/13 11:20:50;;;;;;;;;;;;;;;17.59;45.84;101981.06;5048438;28;19928;-57
2022/05/13 11:23:33;;;;;;;;;;;;;;;17.30;47.56;101974.59;5048032;28;20043;-57
2022/05/13 11:26:01;;;;;;;;;;;;;;;17.28;47.98;101979.31;5046815;28;19921;-58
2022/05/13 11:28:27;;;;;;;;;;;;;;;17.25;47.93;101979.66;5053853;28;19923;-57
2022/05/13 11:30:55;;;;;;;;;;;;;;;16.95;49.07;101984.81;5051830;28;20015;-57
2022/05/13 11:33:27;;;;;;;;;;;;;;;17.13;48.43;101970.34;5051673;28;19920;-57
2022/05/13 11:36:06;;;;;;;;;;;;;;;17.23;48.45;101975.47;5053030;28;20294;-57
2022/05/13 11:38:44;;;;;;;;;;;;;;;17.41;48.47;101969.81;5052818;28;19920;-57
2022/05/13 11:41:13;;;;;;;;;;;;;;;17.82;47.81;101974.81;5050724;28;19925;-57
2022/05/13 11:43:57;;;;;;;;;;;;;;;17.83;47.98;101971.13;5048573;28;19925;-57
2022/05/13 11:46:41;;;;;;;;;;;;;;;18.04;46.97;101963.38;5041385;28;19935;-57
2022/05/13 11:49:09;;;;;;;;;;;;;;;18.05;46.94;101963.19;5036605;28;20015;-57
2022/05/13 11:51:35;;;;;;;;;;;;;;;18.09;46.82;101967.22;5047309;28;19920;-57
2022/05/13 11:54:00;;;;;;;;;;;;;;;18.15;46.54;101963.78;5050024;28;19921;-57
2022/05/13 11:56:31;;;;;;;;;;;;;;;18.27;46.06;101971.38;5050131;28;20594;-57
2022/05/13 11:59:01;;;;;;;;;;;;;;;18.27;46.74;101976.75;5052548;28;19924;-57
2022/05/13 12:01:36;;;;;;;;;;;;;;;18.18;46.16;101977.84;5049541;28;19920;-57
2022/05/13 12:04:22;;;;;;;;;;;;;;;18.06;46.93;101964.88;5048656;28;20031;-58
2022/05/13 12:06:49;;;;;;;;;;;;;;;18.15;47.03;101971.84;5050207;28;19921;-56
2022/05/13 12:09:34;;;;;;;;;;;;;;;18.38;46.96;101972.75;5050759;28;19932;-56
2022/05/13 12:12:06;;;;;;;;;;;;;;;18.55;45.54;101968.00;5051512;28;20408;-57
2022/05/13 12:14:37;;;;;;;;;;;;;;;18.59;45.42;101968.50;5049088;28;19921;-58
2022/05/13 12:17:08;;;;;;;;;;;;;;;18.68;45.06;101976.25;5039536;28;20006;-57
2022/05/13 12:19:52;;;;;;;;;;;;;;;18.69;45.47;101959.13;5052086;28;19928;-57
2022/05/13 12:22:29;;;;;;;;;;;;;;;18.95;44.71;101965.00;5052062;28;20008;-57
2022/05/13 12:25:04;;;;;;;;;;;;;;;19.10;45.13;101962.28;5051423;28;19924;-58
2022/05/13 12:27:44;;;;;;;;;;;;;;;19.13;44.96;101972.66;5048581;28;19924;-58
2022/05/13 12:30:10;;;;;;;;;;;;;;;19.21;44.07;101961.75;5051105;28;19921;-57
2022/05/13 12:32:37;;;;;;;;;;;;;;;19.37;43.48;101965.22;5049956;28;19925;-57
2022/05/13 12:37:54;;;;;;;;;;;;;;;19.41;43.71;101965.66;5052218;28;19928;-57
2022/05/13 12:40:22;;;;;;;;;;;;;;;19.58;43.09;101966.22;5049356;28;19924;-57
2022/05/13 12:42:47;;;;;;;;;;;;;;;19.62;42.45;101962.97;5051494;28;20425;-56
2022/05/13 12:45:32;;;;;;;;;;;;;;;19.60;42.96;101964.19;5050052;28;20398;-57
2022/05/13 12:48:10;;;;;;;;;;;;;;;19.64;42.80;101965.47;5038177;28;19940;-57
2022/05/13 12:50:49;;;;;;;;;;;;;;;19.74;42.47;101955.16;5049482;28;20413;-57
2022/05/13 12:53:30;;;;;;;;;;;;;;;19.62;42.92;101956.72;5052062;28;19921;-57
2022/05/13 12:56:18;;;;;;;;;;;;;;;19.57;42.77;101961.84;5044928;28;19924;-57
2022/05/13 12:58:45;;;;;;;;;;;;;;;19.48;42.80;101951.25;5042606;28;19924;-57